Time;durP1;ratioP1;P1;durP2;ratioP2;P2;SDS_P1;SDS_P2;PMS_P1;PMS_P2;Temp;Humidity;BMP_temperature;BMP_pressure;BME280_temperature;BME280_humidity;BME280_pressure;Samples;Min_cycle;Max_cycle;Signal;HPM_P1;HPM_P2
2023/03/08 00:00:00;;;;;;;2.40;1.20;;;0.30;99.90;;;;;;4992876;28;20093;-70
2023/03/08 00:02:26;;;;;;;3.50;1.42;;;0.30;99.90;;;;;;4993110;28;20030;-70
2023/03/08 00:04:55;;;;;;;3.88;1.40;;;0.40;99.90;;;;;;4992886;28;20159;-70
2023/03/08 00:07:21;;;;;;;6.47;1.05;;;0.30;99.90;;;;;;4993870;28;20074;-70
2023/03/08 00:09:47;;;;;;;2.30;1.10;;;0.30;99.90;;;;;;4993114;28;20094;-70
2023/03/08 00:12:13;;;;;;;3.28;1.15;;;0.30;99.90;;;;;;4992736;28;20498;-70
2023/03/08 00:14:38;;;;;;;2.95;1.23;;;0.40;99.90;;;;;;4992668;28;20046;-69
2023/03/08 00:17:04;;;;;;;4.82;1.40;;;0.30;99.90;;;;;;4992619;28;20042;-70
2023/03/08 00:19:30;;;;;;;4.05;1.33;;;0.40;99.90;;;;;;4992627;28;20042;-70
2023/03/08 00:21:55;;;;;;;4.82;1.33;;;0.40;99.90;;;;;;4992885;28;20042;-70
2023/03/08 00:24:21;;;;;;;5.32;1.25;;;0.20;99.90;;;;;;4992803;28;20053;-70
2023/03/08 00:26:46;;;;;;;5.13;1.65;;;0.30;99.90;;;;;;4976437;28;20495;-70
2023/03/08 00:29:12;;;;;;;7.13;1.02;;;0.20;99.90;;;;;;4992521;28;20047;-69
2023/03/08 00:31:38;;;;;;;3.50;1.75;;;0.30;99.90;;;;;;4992449;28;20129;-69
2023/03/08 00:34:03;;;;;;;3.15;1.25;;;0.20;99.90;;;;;;4992234;28;20042;-70
2023/03/08 00:36:29;;;;;;;4.18;1.23;;;0.20;99.90;;;;;;4992455;28;20057;-70
2023/03/08 00:38:56;;;;;;;6.60;1.77;;;0.30;99.90;;;;;;4992442;28;20038;-69
2023/03/08 00:41:21;;;;;;;2.95;1.23;;;0.20;99.90;;;;;;4992373;28;20034;-70
2023/03/08 00:43:47;;;;;;;4.53;1.67;;;0.20;99.90;;;;;;4992328;28;20097;-70
2023/03/08 00:46:13;;;;;;;4.18;1.60;;;0.10;99.90;;;;;;4992653;28;20038;-70
2023/03/08 00:48:40;;;;;;;4.82;1.70;;;0.20;99.90;;;;;;4992407;28;20125;-70
2023/03/08 00:51:06;;;;;;;4.22;1.90;;;0.30;99.90;;;;;;4992339;28;20089;-70
2023/03/08 00:53:32;;;;;;;4.07;1.60;;;0.20;99.90;;;;;;4992323;28;20039;-70
2023/03/08 00:55:59;;;;;;;4.82;1.63;;;0.30;99.90;;;;;;4992547;28;20154;-70
2023/03/08 00:58:27;;;;;;;6.13;1.60;;;0.10;99.90;;;;;;4992548;28;20038;-70
2023/03/08 01:00:53;;;;;;;3.63;1.60;;;0.20;99.90;;;;;;4992502;28;20414;-70
2023/03/08 01:03:20;;;;;;;2.50;1.52;;;0.20;99.90;;;;;;4992430;28;20053;-70
2023/03/08 01:05:49;;;;;;;4.03;1.63;;;0.10;99.90;;;;;;4992474;28;20042;-69
2023/03/08 01:08:17;;;;;;;5.50;1.95;;;0.10;99.90;;;;;;4992197;28;20590;-69
2023/03/08 01:10:58;;;;;;;5.45;1.80;;;0.10;99.90;;;;;;4992194;28;20129;-69
2023/03/08 01:13:26;;;;;;;4.40;2.60;;;0.10;99.90;;;;;;4994583;28;20515;-70
2023/03/08 01:15:52;;;;;;;4.15;2.05;;;0.10;99.90;;;;;;4980019;28;20132;-70
2023/03/08 01:18:17;;;;;;;3.80;1.83;;;0.10;99.90;;;;;;4996175;28;20464;-70
2023/03/08 01:20:43;;;;;;;3.67;1.75;;;0.10;99.90;;;;;;4995937;28;20498;-69
2023/03/08 01:23:09;;;;;;;4.53;1.70;;;0.10;99.90;;;;;;4979812;28;20109;-69
2023/03/08 01:25:35;;;;;;;5.15;1.63;;;0.00;99.90;;;;;;4995770;28;20129;-69
2023/03/08 01:28:02;;;;;;;4.22;1.60;;;0.00;99.90;;;;;;4979581;28;20084;-69
2023/03/08 01:30:27;;;;;;;4.40;1.80;;;0.00;99.90;;;;;;4996000;28;20070;-69
2023/03/08 01:32:53;;;;;;;4.97;1.52;;;-0.10;99.90;;;;;;4995373;28;20524;-69
2023/03/08 01:35:19;;;;;;;5.88;1.80;;;-0.10;99.90;;;;;;4995618;28;20030;-69
2023/03/08 01:37:44;;;;;;;4.97;2.03;;;-0.20;99.90;;;;;;4995572;28;20034;-69
2023/03/08 01:40:14;;;;;;;6.18;1.90;;;-0.20;99.90;;;;;;4979279;28;20041;-69
2023/03/08 01:42:40;;;;;;;4.50;1.80;;;-0.10;99.90;;;;;;4995930;28;20037;-70
2023/03/08 01:45:44;;;;;;;4.85;1.85;;;-0.10;99.90;;;;;;4995366;28;20034;-70
2023/03/08 01:48:11;;;;;;;4.63;1.65;;;-0.20;99.90;;;;;;4995274;28;20050;-69
2023/03/08 01:50:38;;;;;;;4.60;1.88;;;-0.30;99.90;;;;;;4995299;28;20117;-69
2023/03/08 01:53:04;;;;;;;5.75;2.00;;;-0.30;99.90;;;;;;4978837;28;20470;-69
2023/03/08 01:55:29;;;;;;;4.60;2.15;;;-0.30;99.90;;;;;;4995172;28;20034;-69
2023/03/08 01:57:55;;;;;;;4.55;1.90;;;-0.30;99.90;;;;;;4995175;28;20038;-69
2023/03/08 02:00:23;;;;;;;4.18;1.95;;;-0.40;99.90;;;;;;4995157;28;20034;-69
2023/03/08 02:02:59;;;;;;;7.35;2.17;;;-0.40;99.90;;;;;;4995338;28;20042;-69
2023/03/08 02:05:26;;;;;;;4.65;2.30;;;-0.40;99.90;;;;;;4995034;28;20040;-69
2023/03/08 02:07:52;;;;;;;4.50;2.47;;;-0.40;99.90;;;;;;4995003;28;20073;-69
2023/03/08 02:10:18;;;;;;;6.43;3.30;;;-0.50;99.90;;;;;;4995014;28;20046;-69
2023/03/08 02:12:44;;;;;;;7.22;3.50;;;-0.40;99.90;;;;;;4994776;28;20035;-69
2023/03/08 02:15:12;;;;;;;6.28;3.47;;;-0.50;99.90;;;;;;4994873;28;20166;-69
2023/03/08 02:17:39;;;;;;;7.88;4.05;;;-0.40;99.90;;;;;;4995092;28;20443;-69
2023/03/08 02:20:17;;;;;;;10.20;4.53;;;-0.60;99.90;;;;;;4978874;28;20487;-69
2023/03/08 02:22:44;;;;;;;7.55;4.40;;;-0.60;99.90;;;;;;4994905;28;20105;-70
2023/03/08 02:25:18;;;;;;;8.57;5.00;;;-0.60;99.90;;;;;;4993436;28;20049;-69
2023/03/08 02:27:44;;;;;;;8.65;4.82;;;-0.60;99.90;;;;;;4994909;28;20483;-69
2023/03/08 02:30:13;;;;;;;7.43;4.65;;;-0.70;99.90;;;;;;4994848;28;20410;-69
2023/03/08 02:32:38;;;;;;;10.00;5.15;;;-0.70;99.90;;;;;;4994547;28;20034;-70
2023/03/08 02:35:04;;;;;;;8.88;5.40;;;-0.60;99.90;;;;;;4994708;28;20042;-69
2023/03/08 02:37:31;;;;;;;8.27;5.63;;;-0.60;99.90;;;;;;4994452;28;20411;-69
2023/03/08 02:39:57;;;;;;;10.23;6.03;;;-0.70;99.90;;;;;;4994407;28;20042;-69
2023/03/08 02:42:23;;;;;;;11.32;6.15;;;-0.60;99.90;;;;;;4994553;28;20045;-70
2023/03/08 02:44:48;;;;;;;11.55;6.55;;;-0.70;99.90;;;;;;4994217;28;20129;-70
2023/03/08 02:47:14;;;;;;;11.60;6.55;;;-0.70;99.90;;;;;;4994240;28;20038;-69
2023/03/08 02:49:39;;;;;;;9.30;6.05;;;-0.80;99.90;;;;;;4994442;28;20050;-69
2023/03/08 02:52:06;;;;;;;11.35;6.75;;;-0.60;99.90;;;;;;4977916;28;20422;-70
2023/03/08 02:54:31;;;;;;;11.00;6.70;;;-0.70;99.90;;;;;;4994047;28;20062;-70
2023/03/08 02:56:57;;;;;;;9.55;6.38;;;-0.70;99.90;;;;;;4994058;28;20042;-70
2023/03/08 02:59:23;;;;;;;10.25;6.03;;;-0.70;99.90;;;;;;4994010;28;20070;-69
2023/03/08 03:01:48;;;;;;;11.93;7.03;;;-0.70;99.90;;;;;;4994012;28;20042;-69
2023/03/08 03:04:14;;;;;;;10.98;6.68;;;-0.60;99.90;;;;;;4993852;28;20133;-70
2023/03/08 03:06:39;;;;;;;10.38;7.28;;;-0.60;99.90;;;;;;4993899;28;20038;-70
2023/03/08 03:09:09;;;;;;;12.18;7.15;;;-0.60;99.90;;;;;;4993778;28;20084;-69
2023/03/08 03:11:35;;;;;;;11.73;6.78;;;-0.50;99.90;;;;;;4994023;28;20458;-69
2023/03/08 03:14:01;;;;;;;11.38;6.78;;;-0.50;99.90;;;;;;4993739;28;20034;-69
2023/03/08 03:16:27;;;;;;;9.20;6.80;;;-0.40;99.90;;;;;;4993950;28;20038;-69
2023/03/08 03:18:54;;;;;;;9.32;7.20;;;-0.40;99.90;;;;;;4993890;28;20068;-69
2023/03/08 03:21:21;;;;;;;10.48;7.53;;;-0.50;99.90;;;;;;4993616;28;20049;-70
2023/03/08 03:23:47;;;;;;;13.30;7.15;;;-0.40;99.90;;;;;;4993478;28;20081;-70
2023/03/08 03:26:16;;;;;;;13.18;7.72;;;-0.30;99.90;;;;;;4977369;28;20050;-69
2023/03/08 03:28:42;;;;;;;10.88;7.00;;;-0.30;99.90;;;;;;4977233;28;20549;-70
2023/03/08 03:31:11;;;;;;;13.65;8.07;;;-0.30;99.90;;;;;;4977552;28;20064;-69
2023/03/08 03:33:38;;;;;;;12.55;7.05;;;-0.40;99.90;;;;;;4993043;28;20089;-70
2023/03/08 03:36:04;;;;;;;17.58;8.25;;;-0.30;99.90;;;;;;4993167;28;20035;-69
2023/03/08 03:38:30;;;;;;;11.00;6.72;;;-0.40;99.90;;;;;;4993317;28;20126;-69
2023/03/08 03:41:08;;;;;;;10.77;7.55;;;-0.40;99.90;;;;;;4993281;28;20069;-70
2023/03/08 03:43:35;;;;;;;10.30;6.47;;;-0.40;99.90;;;;;;4993169;28;20092;-70
2023/03/08 03:46:03;;;;;;;10.20;7.30;;;-0.40;99.90;;;;;;4976999;28;20042;-70
2023/03/08 03:48:30;;;;;;;11.07;6.80;;;-0.50;99.90;;;;;;4993114;28;20078;-69
2023/03/08 03:51:16;;;;;;;14.05;7.45;;;-0.50;99.90;;;;;;4993090;28;20467;-70
2023/03/08 03:53:42;;;;;;;11.13;6.85;;;-0.50;99.90;;;;;;4992946;28;20042;-70
2023/03/08 03:56:14;;;;;;;12.38;6.95;;;-0.50;99.90;;;;;;4993015;28;20030;-70
2023/03/08 03:58:40;;;;;;;10.80;6.32;;;-0.60;99.90;;;;;;4992974;28;20085;-70
2023/03/08 04:01:19;;;;;;;11.15;6.90;;;-0.60;99.90;;;;;;4992980;28;20040;-69
2023/03/08 04:03:45;;;;;;;10.88;7.55;;;-0.70;99.90;;;;;;4992850;28;20414;-70
2023/03/08 04:06:13;;;;;;;10.65;6.88;;;-0.60;99.90;;;;;;4992853;28;20490;-69
2023/03/08 04:08:41;;;;;;;13.10;7.40;;;-0.60;99.90;;;;;;4992772;28;20046;-69
2023/03/08 04:11:11;;;;;;;13.10;7.25;;;-0.80;99.90;;;;;;4992794;28;20074;-70
2023/03/08 04:13:38;;;;;;;10.40;6.50;;;-0.80;99.90;;;;;;4992595;28;20425;-70
2023/03/08 04:16:14;;;;;;;10.77;6.63;;;-0.60;99.90;;;;;;4976556;28;20089;-69
2023/03/08 04:18:40;;;;;;;9.25;6.43;;;-0.70;99.90;;;;;;4992971;28;20038;-69
2023/03/08 04:21:06;;;;;;;11.00;7.28;;;-0.70;99.90;;;;;;4992631;28;20045;-69
2023/03/08 04:23:32;;;;;;;13.77;7.10;;;-0.60;99.90;;;;;;4993333;28;20395;-70
2023/03/08 04:25:58;;;;;;;9.27;6.28;;;-0.60;99.90;;;;;;4992866;28;20045;-69
2023/03/08 04:28:23;;;;;;;10.57;5.88;;;-0.60;99.90;;;;;;4992580;28;20042;-69
2023/03/08 04:30:49;;;;;;;9.15;6.30;;;-0.60;99.90;;;;;;4992519;28;20050;-69
2023/03/08 04:33:15;;;;;;;9.02;6.53;;;-0.60;99.90;;;;;;4992232;28;20046;-69
2023/03/08 04:35:40;;;;;;;8.32;5.68;;;-0.60;99.90;;;;;;4992739;28;20034;-69
2023/03/08 04:38:06;;;;;;;10.25;6.55;;;-0.50;99.90;;;;;;4992466;28;20511;-69
2023/03/08 04:40:31;;;;;;;10.25;6.60;;;-0.50;99.90;;;;;;4992452;28;20042;-69
2023/03/08 04:42:57;;;;;;;10.30;5.57;;;-0.60;99.90;;;;;;4992360;28;20044;-70
2023/03/08 04:45:23;;;;;;;10.10;5.63;;;-0.50;99.90;;;;;;4992641;28;20129;-69
2023/03/08 04:47:48;;;;;;;12.07;6.30;;;-0.50;99.90;;;;;;4994078;28;20034;-69
2023/03/08 04:50:14;;;;;;;8.50;5.43;;;-0.50;99.90;;;;;;4996391;28;20147;-70
2023/03/08 04:52:40;;;;;;;14.95;6.22;;;-0.50;99.90;;;;;;4996270;28;20118;-70
2023/03/08 04:55:06;;;;;;;11.25;5.97;;;-0.40;99.90;;;;;;4980134;28;20038;-70
2023/03/08 04:57:33;;;;;;;8.18;5.45;;;-0.50;99.90;;;;;;4980087;28;20038;-69
2023/03/08 04:59:59;;;;;;;11.52;5.70;;;-0.40;99.90;;;;;;4996259;28;20119;-69
2023/03/08 05:02:25;;;;;;;10.68;5.90;;;-0.40;99.90;;;;;;4996381;28;20046;-70
2023/03/08 05:04:50;;;;;;;10.75;5.80;;;-0.40;99.90;;;;;;4996167;28;20495;-70
2023/03/08 05:07:16;;;;;;;7.78;5.18;;;-0.40;99.90;;;;;;4980154;28;20038;-69
2023/03/08 05:09:41;;;;;;;9.02;4.78;;;-0.40;99.90;;;;;;4979904;28;20414;-69
2023/03/08 05:12:07;;;;;;;11.57;5.57;;;-0.50;99.90;;;;;;4995962;28;20043;-70
2023/03/08 05:14:33;;;;;;;12.60;5.90;;;-0.40;99.90;;;;;;4995902;28;20043;-70
2023/03/08 05:16:58;;;;;;;10.80;5.70;;;-0.50;99.90;;;;;;4995857;28;20038;-70
2023/03/08 05:19:24;;;;;;;10.00;5.47;;;-0.50;99.90;;;;;;4979652;28;20038;-69
2023/03/08 05:21:50;;;;;;;11.23;5.50;;;-0.70;99.90;;;;;;4996072;28;20061;-69
2023/03/08 05:24:16;;;;;;;9.95;5.28;;;-0.60;99.90;;;;;;4995744;28;20518;-69
2023/03/08 05:26:41;;;;;;;9.85;5.70;;;-0.70;99.90;;;;;;4995756;28;20042;-69
2023/03/08 05:29:07;;;;;;;8.07;5.75;;;-0.70;99.90;;;;;;4995713;28;20038;-70
2023/03/08 05:31:35;;;;;;;11.18;5.50;;;-0.80;99.90;;;;;;4995595;28;20081;-70
2023/03/08 05:34:01;;;;;;;8.10;4.93;;;-0.80;99.90;;;;;;4995391;28;20046;-70
2023/03/08 05:36:26;;;;;;;7.88;5.70;;;-0.80;99.90;;;;;;4995605;28;20045;-69
2023/03/08 05:38:55;;;;;;;10.77;5.93;;;-0.80;99.90;;;;;;4995546;28;20122;-69
2023/03/08 05:41:21;;;;;;;8.02;5.38;;;-0.70;99.90;;;;;;4979301;28;20491;-70
2023/03/08 05:43:46;;;;;;;9.27;5.50;;;-0.80;99.90;;;;;;4995617;28;20051;-69
2023/03/08 05:46:14;;;;;;;9.15;5.45;;;-0.80;99.90;;;;;;4995443;28;20034;-70
2023/03/08 05:48:40;;;;;;;8.05;4.53;;;-0.80;99.90;;;;;;4995683;28;20056;-69
2023/03/08 05:51:12;;;;;;;11.50;5.28;;;-0.70;99.90;;;;;;4979345;28;20406;-69
2023/03/08 05:53:38;;;;;;;9.63;4.60;;;-0.60;99.90;;;;;;4995394;28;20042;-70
2023/03/08 05:56:17;;;;;;;8.02;5.22;;;-0.60;99.90;;;;;;4995502;28;20498;-70
2023/03/08 05:58:44;;;;;;;9.52;5.07;;;-0.60;99.90;;;;;;4994967;28;20092;-69
2023/03/08 06:01:21;;;;;;;7.50;4.72;;;-0.70;99.90;;;;;;4995184;28;20045;-69
2023/03/08 06:03:49;;;;;;;11.38;5.10;;;-0.70;99.90;;;;;;4995040;28;20038;-70
2023/03/08 06:06:16;;;;;;;11.27;4.65;;;-0.60;99.90;;;;;;4994954;28;20073;-69
2023/03/08 06:08:42;;;;;;;7.47;5.07;;;-0.60;99.90;;;;;;4995238;28;20513;-69
2023/03/08 06:11:08;;;;;;;12.80;5.13;;;-0.50;99.90;;;;;;4994947;28;20129;-69
2023/03/08 06:13:34;;;;;;;9.40;5.25;;;-0.50;99.90;;;;;;4994744;28;20078;-70
2023/03/08 06:16:01;;;;;;;7.05;4.70;;;-0.50;99.90;;;;;;4978621;28;20077;-69
2023/03/08 06:18:27;;;;;;;8.63;4.90;;;-0.60;99.90;;;;;;4994823;28;20038;-69
2023/03/08 06:21:01;;;;;;;6.85;4.95;;;-0.50;99.90;;;;;;4994746;28;20447;-69
2023/03/08 06:23:28;;;;;;;8.82;5.10;;;-0.60;99.90;;;;;;4994943;28;20101;-69
2023/03/08 06:25:55;;;;;;;7.53;4.85;;;-0.50;99.90;;;;;;4994618;28;20133;-70
2023/03/08 06:28:21;;;;;;;8.05;4.75;;;-0.60;99.90;;;;;;4994807;28;20108;-69
2023/03/08 06:30:50;;;;;;;8.40;4.93;;;-0.60;99.90;;;;;;4994442;28;20388;-69
2023/03/08 06:33:22;;;;;;;9.30;4.78;;;-0.50;99.90;;;;;;4994215;28;20174;-70
2023/03/08 06:35:59;;;;;;;8.77;5.43;;;-0.60;99.90;;;;;;4994810;28;20503;-69
2023/03/08 06:38:25;;;;;;;12.30;5.28;;;-0.50;99.90;;;;;;4994551;28;20041;-69
2023/03/08 06:40:51;;;;;;;10.95;5.22;;;-0.60;99.90;;;;;;4994411;28;20042;-69
2023/03/08 06:43:17;;;;;;;9.40;5.00;;;-0.70;99.90;;;;;;4994304;28;20046;-70
2023/03/08 06:45:42;;;;;;;8.13;5.47;;;-0.60;99.90;;;;;;4994306;28;20038;-69
2023/03/08 06:48:08;;;;;;;9.32;5.32;;;-0.60;99.90;;;;;;4994338;28;20042;-69
2023/03/08 06:50:34;;;;;;;6.93;5.80;;;-0.60;99.90;;;;;;4994229;28;20126;-69
2023/03/08 06:53:00;;;;;;;9.68;5.97;;;-0.40;99.90;;;;;;4977790;28;20046;-69
2023/03/08 06:55:26;;;;;;;8.93;5.53;;;-0.50;99.90;;;;;;4994402;28;20037;-69
2023/03/08 06:57:51;;;;;;;10.85;5.47;;;-0.40;99.90;;;;;;4994329;28;20496;-69
2023/03/08 07:00:17;;;;;;;9.38;5.90;;;-0.40;99.90;;;;;;4994302;28;20510;-69
2023/03/08 07:02:43;;;;;;;11.52;5.85;;;-0.30;99.90;;;;;;4994752;28;20042;-69
2023/03/08 07:05:09;;;;;;;8.23;5.13;;;-0.20;99.90;;;;;;4994009;28;20513;-69
2023/03/08 07:07:35;;;;;;;8.75;5.63;;;-0.20;99.90;;;;;;4993934;28;20038;-69
2023/03/08 07:10:02;;;;;;;10.02;5.60;;;-0.20;99.90;;;;;;4976959;28;20034;-69
2023/03/08 07:12:30;;;;;;;11.82;6.15;;;-0.30;99.90;;;;;;4994006;28;20049;-69
2023/03/08 07:14:55;;;;;;;8.60;5.35;;;-0.10;99.90;;;;;;4993634;28;20046;-69
2023/03/08 07:17:21;;;;;;;8.95;5.70;;;-0.10;99.90;;;;;;4977593;28;20030;-69
2023/03/08 07:19:46;;;;;;;7.43;5.88;;;-0.20;99.90;;;;;;4993906;28;20092;-69
2023/03/08 07:22:12;;;;;;;10.05;6.18;;;-0.10;99.90;;;;;;4993588;28;20042;-69
2023/03/08 07:24:38;;;;;;;9.18;5.55;;;0.00;99.90;;;;;;4977391;28;20053;-69
2023/03/08 07:27:04;;;;;;;9.40;5.25;;;0.00;99.90;;;;;;4993767;28;20046;-69
2023/03/08 07:29:30;;;;;;;8.13;5.65;;;0.10;99.90;;;;;;4993745;28;20046;-69
2023/03/08 07:31:55;;;;;;;9.50;5.53;;;0.10;99.90;;;;;;4993431;28;20481;-69
2023/03/08 07:34:24;;;;;;;7.38;5.03;;;0.20;99.90;;;;;;4994342;28;20035;-69
2023/03/08 07:36:50;;;;;;;11.73;5.55;;;0.10;99.90;;;;;;4993345;28;20042;-70
2023/03/08 07:39:16;;;;;;;7.85;4.97;;;0.20;99.90;;;;;;4993293;28;20050;-69
2023/03/08 07:41:41;;;;;;;9.25;4.68;;;0.30;99.90;;;;;;4993538;28;20132;-69
2023/03/08 07:44:07;;;;;;;7.82;5.10;;;0.20;99.90;;;;;;4977489;28;20505;-69
2023/03/08 07:46:33;;;;;;;8.52;4.60;;;0.20;99.90;;;;;;4993193;28;20548;-69
2023/03/08 07:48:59;;;;;;;9.85;5.47;;;0.30;99.90;;;;;;4993165;28;20125;-69
2023/03/08 07:51:24;;;;;;;9.02;5.00;;;0.40;99.90;;;;;;4993536;28;20034;-69
2023/03/08 07:53:51;;;;;;;7.68;4.45;;;0.40;99.90;;;;;;4993122;28;20038;-70
2023/03/08 07:56:17;;;;;;;8.13;5.22;;;0.40;99.90;;;;;;4993246;28;20594;-69
2023/03/08 07:58:42;;;;;;;8.57;4.80;;;0.50;99.90;;;;;;4993096;28;20121;-69
2023/03/08 08:01:10;;;;;;;9.75;5.05;;;0.50;99.90;;;;;;4992949;28;20034;-70
2023/03/08 08:03:37;;;;;;;8.98;5.32;;;0.50;99.90;;;;;;4993108;28;20483;-69
2023/03/08 08:06:04;;;;;;;8.55;4.60;;;0.60;99.90;;;;;;4993110;28;20077;-69
2023/03/08 08:08:30;;;;;;;9.93;4.60;;;0.60;99.90;;;;;;4993069;28;20406;-69
2023/03/08 08:10:55;;;;;;;9.80;6.13;;;0.70;99.90;;;;;;4992721;28;20038;-69
2023/03/08 08:13:21;;;;;;;9.63;4.75;;;0.70;99.90;;;;;;4976481;28;20105;-69
2023/03/08 08:15:55;;;;;;;7.82;5.10;;;0.80;99.90;;;;;;4992690;28;20050;-69
2023/03/08 08:18:21;;;;;;;6.10;4.55;;;0.90;99.90;;;;;;4992750;28;20121;-69
2023/03/08 08:20:46;;;;;;;9.15;4.28;;;1.00;99.90;;;;;;4992606;28;20121;-70
2023/03/08 08:23:12;;;;;;;6.47;4.75;;;1.10;99.90;;;;;;4992736;28;20097;-70
2023/03/08 08:25:39;;;;;;;8.10;4.65;;;1.30;99.90;;;;;;4992560;28;20450;-69
2023/03/08 08:28:04;;;;;;;8.27;4.82;;;1.30;99.90;;;;;;4976349;28;20053;-69
2023/03/08 08:30:30;;;;;;;7.40;4.60;;;1.40;99.90;;;;;;4992524;28;20046;-69
2023/03/08 08:32:56;;;;;;;8.05;4.75;;;1.50;99.90;;;;;;4992367;28;20050;-69
2023/03/08 08:35:22;;;;;;;5.68;4.60;;;1.50;99.90;;;;;;4976488;28;20194;-69
2023/03/08 08:37:47;;;;;;;6.68;4.82;;;1.60;99.90;;;;;;4992917;28;20162;-69
2023/03/08 08:40:13;;;;;;;7.78;4.53;;;1.60;99.90;;;;;;4976627;28;20513;-69
2023/03/08 08:42:39;;;;;;;6.28;4.95;;;1.60;99.90;;;;;;4992472;28;20034;-69
2023/03/08 08:45:05;;;;;;;6.82;4.63;;;1.80;99.90;;;;;;4992795;28;20046;-70
2023/03/08 08:47:31;;;;;;;9.55;4.80;;;2.00;99.90;;;;;;4992556;28;20039;-69
2023/03/08 08:49:56;;;;;;;5.90;4.50;;;2.30;99.90;;;;;;4992724;28;20185;-69
2023/03/08 08:52:22;;;;;;;8.02;4.57;;;2.40;99.90;;;;;;4992790;28;20413;-70
2023/03/08 08:54:47;;;;;;;6.63;4.68;;;2.50;99.90;;;;;;4992390;28;20046;-69
2023/03/08 08:57:13;;;;;;;9.10;4.90;;;2.60;99.90;;;;;;4992298;28;20042;-69
2023/03/08 08:59:39;;;;;;;11.32;5.30;;;2.60;99.90;;;;;;4992462;28;20039;-69
2023/03/08 09:02:05;;;;;;;7.35;4.53;;;2.60;99.90;;;;;;4992630;28;20046;-69
2023/03/08 09:04:30;;;;;;;7.53;4.90;;;2.70;99.90;;;;;;4992619;28;20077;-69
2023/03/08 09:06:56;;;;;;;9.43;5.05;;;2.70;99.90;;;;;;4992271;28;20451;-69
2023/03/08 09:09:21;;;;;;;11.60;4.97;;;2.70;99.90;;;;;;4992496;28;20046;-69
2023/03/08 09:11:47;;;;;;;8.00;5.63;;;2.70;99.90;;;;;;4992157;28;20050;-69
2023/03/08 09:14:13;;;;;;;13.48;4.97;;;2.70;99.90;;;;;;4991968;28;20050;-69
2023/03/08 09:16:39;;;;;;;9.32;5.40;;;2.70;99.90;;;;;;4992201;28;20042;-69
2023/03/08 09:19:06;;;;;;;7.25;4.85;;;2.80;99.90;;;;;;4992234;28;20116;-69
2023/03/08 09:21:33;;;;;;;7.30;5.43;;;2.80;99.90;;;;;;4992343;28;20046;-69
2023/03/08 09:24:02;;;;;;;10.13;5.43;;;2.80;99.90;;;;;;4975834;28;20145;-70
2023/03/08 09:26:33;;;;;;;7.18;5.65;;;2.90;99.90;;;;;;4992147;28;20396;-69
2023/03/08 09:29:03;;;;;;;7.25;4.90;;;3.00;99.90;;;;;;4992138;28;20622;-69
2023/03/08 09:31:29;;;;;;;8.43;5.45;;;3.10;99.90;;;;;;4992112;28;20054;-69
2023/03/08 09:33:55;;;;;;;7.28;5.03;;;3.20;99.90;;;;;;4993564;28;20038;-69
2023/03/08 09:36:20;;;;;;;12.77;6.10;;;3.20;99.90;;;;;;4995676;28;20045;-69
2023/03/08 09:38:47;;;;;;;8.38;6.10;;;3.30;99.90;;;;;;4995691;28;20043;-69
2023/03/08 09:41:24;;;;;;;8.98;5.30;;;3.20;99.90;;;;;;4995713;28;20053;-69
2023/03/08 09:44:21;;;;;;;7.75;5.40;;;3.30;99.90;;;;;;4996210;28;20525;-69
2023/03/08 09:47:01;;;;;;;9.85;5.15;;;3.30;99.90;;;;;;4995851;28;20046;-69
2023/03/08 09:49:30;;;;;;;8.38;5.20;;;3.30;99.90;;;;;;4995534;28;20042;-69
2023/03/08 09:52:07;;;;;;;10.02;5.22;;;3.40;99.90;;;;;;4995446;28;20077;-69
2023/03/08 09:54:37;;;;;;;8.20;5.82;;;3.50;99.90;;;;;;4979161;28;20121;-68
2023/03/08 09:57:07;;;;;;;8.80;5.78;;;3.70;99.90;;;;;;4995323;28;20041;-68
2023/03/08 09:59:46;;;;;;;7.97;5.80;;;3.90;99.90;;;;;;4995345;28;20038;-68
2023/03/08 10:02:51;;;;;;;9.32;5.35;;;4.20;99.90;;;;;;4995431;28;20122;-68
2023/03/08 10:05:49;;;;;;;8.57;5.70;;;4.40;99.90;;;;;;4946746;28;20086;-68
2023/03/08 10:08:48;;;;;;;9.40;5.45;;;4.60;99.90;;;;;;4965701;28;20061;-69
2023/03/08 10:11:52;;;;;;;9.38;5.22;;;4.80;99.90;;;;;;4959201;28;20186;-69
2023/03/08 10:14:31;;;;;;;8.23;5.38;;;5.00;99.90;;;;;;4995027;28;20121;-69
2023/03/08 10:17:03;;;;;;;7.60;5.78;;;5.10;99.90;;;;;;4995464;28;20104;-68
2023/03/08 10:19:40;;;;;;;7.13;5.78;;;5.20;99.90;;;;;;4978854;28;20041;-68
2023/03/08 10:22:26;;;;;;;8.48;5.85;;;5.20;99.90;;;;;;4994924;28;20069;-68
2023/03/08 10:25:13;;;;;;;8.27;5.15;;;5.30;99.90;;;;;;4994306;28;20081;-69
2023/03/08 10:27:39;;;;;;;7.85;5.32;;;5.40;99.90;;;;;;4995026;28;20072;-69
2023/03/08 10:30:14;;;;;;;7.38;4.63;;;5.40;99.90;;;;;;4994925;28;20054;-68
2023/03/08 10:32:46;;;;;;;5.78;4.65;;;5.50;99.90;;;;;;4994554;28;20049;-68
2023/03/08 10:35:12;;;;;;;7.07;4.90;;;5.50;99.90;;;;;;4994625;28;20047;-68
2023/03/08 10:37:38;;;;;;;6.78;4.32;;;5.60;99.90;;;;;;4994804;28;20073;-68
2023/03/08 10:40:22;;;;;;;7.43;4.15;;;5.70;99.90;;;;;;4994831;28;20108;-68
2023/03/08 10:42:58;;;;;;;8.50;4.55;;;5.90;99.90;;;;;;4994516;28;20049;-69
2023/03/08 10:45:25;;;;;;;6.93;4.22;;;6.00;99.90;;;;;;4993494;28;20614;-69
2023/03/08 10:48:02;;;;;;;7.00;3.85;;;6.20;99.90;;;;;;4994410;28;20407;-69
2023/03/08 10:50:35;;;;;;;7.55;3.95;;;6.40;99.90;;;;;;4994634;28;20034;-69
2023/03/08 10:53:18;;;;;;;7.93;4.00;;;6.60;99.90;;;;;;4994181;28;20042;-68
2023/03/08 10:55:49;;;;;;;5.70;3.80;;;6.70;99.90;;;;;;4994332;28;20046;-69
2023/03/08 10:58:32;;;;;;;4.65;3.00;;;6.90;99.90;;;;;;4977996;28;20038;-69
2023/03/08 11:01:48;;;;;;;6.40;2.90;;;7.10;99.90;;;;;;4994220;28;20073;-68
2023/03/08 11:04:19;;;;;;;4.47;2.58;;;7.10;99.90;;;;;;4989571;28;20514;-68
2023/03/08 11:06:45;;;;;;;3.67;2.38;;;7.10;99.90;;;;;;4994015;28;20089;-69
2023/03/08 11:09:25;;;;;;;3.90;2.28;;;7.20;99.90;;;;;;4993933;28;20038;-69
2023/03/08 11:11:51;;;;;;;4.43;2.45;;;7.10;99.90;;;;;;4994195;28;20046;-69
2023/03/08 11:14:17;;;;;;;4.13;1.98;;;7.00;99.90;;;;;;4993770;28;20148;-69
2023/03/08 11:17:06;;;;;;;4.25;1.67;;;6.90;99.90;;;;;;4993808;28;20534;-69
2023/03/08 11:19:43;;;;;;;5.05;1.30;;;6.80;99.90;;;;;;4993762;28;20042;-69
2023/03/08 11:22:17;;;;;;;5.97;1.75;;;6.60;99.90;;;;;;4993835;28;20034;-69
2023/03/08 11:25:00;;;;;;;5.28;1.85;;;6.50;99.90;;;;;;4993737;28;20053;-68
2023/03/08 11:27:54;;;;;;;10.55;2.20;;;6.30;99.90;;;;;;4993695;28;20081;-69
2023/03/08 11:30:58;;;;;;;4.88;2.15;;;6.30;99.90;;;;;;4993916;28;20049;-69
2023/03/08 11:33:23;;;;;;;;;;;6.20;99.90;;;;;;4909643;28;20095;-69
2023/03/08 11:36:04;;;;;;;5.03;2.22;;;6.10;99.90;;;;;;4993893;28;19965;-69
2023/03/08 11:38:32;;;;;;;4.75;1.30;;;6.10;99.90;;;;;;4993792;28;20043;-68
2023/03/08 11:41:03;;;;;;;3.97;1.35;;;6.00;99.90;;;;;;4993770;28;20147;-68
2023/03/08 11:43:57;;;;;;;7.72;1.63;;;6.00;99.90;;;;;;4993550;28;20138;-69
2023/03/08 11:46:49;;;;;;;4.43;1.42;;;6.00;99.90;;;;;;4993311;28;20514;-68
2023/03/08 11:49:36;;;;;;;4.05;1.58;;;6.10;99.90;;;;;;4977367;28;20058;-68
2023/03/08 11:52:19;;;;;;;4.07;1.40;;;6.10;99.90;;;;;;4993155;28;20042;-68
2023/03/08 11:55:06;;;;;;;10.35;1.13;;;6.00;99.90;;;;;;4993264;28;20096;-68
2023/03/08 11:57:37;;;;;;;3.42;1.73;;;6.10;99.90;;;;;;4992760;28;20051;-68
2023/03/08 12:00:32;;;;;;;3.08;1.30;;;6.10;99.90;;;;;;4993461;28;20553;-69
2023/03/08 12:03:04;;;;;;;7.00;1.63;;;6.00;99.90;;;;;;4992453;28;20522;-69
2023/03/08 12:05:34;;;;;;;6.38;1.83;;;5.90;99.90;;;;;;4992995;28;20045;-68
2023/03/08 12:08:08;;;;;;;4.85;2.33;;;5.90;99.90;;;;;;4993097;28;20038;-68
2023/03/08 12:10:48;;;;;;;7.60;2.15;;;5.80;99.90;;;;;;4992876;28;20474;-68
2023/03/08 12:13:24;;;;;;;6.47;2.47;;;5.70;99.90;;;;;;4992705;28;20125;-69
2023/03/08 12:15:58;;;;;;;3.55;1.88;;;5.80;99.90;;;;;;4992773;28;20085;-69
2023/03/08 12:18:33;;;;;;;4.22;1.90;;;5.70;99.90;;;;;;4993019;28;20104;-69
2023/03/08 12:21:09;;;;;;;7.88;2.75;;;5.70;99.90;;;;;;4976596;28;20046;-69
2023/03/08 12:24:22;;;;;;;6.35;3.05;;;5.70;99.90;;;;;;4992869;28;20129;-68
2023/03/08 12:27:14;;;;;;;6.82;2.10;;;5.70;99.90;;;;;;4940003;28;20054;-69
2023/03/08 12:29:44;;;;;;;7.10;2.70;;;5.70;99.90;;;;;;4943956;28;20051;-69
2023/03/08 12:32:13;;;;;;;7.28;2.58;;;5.60;99.90;;;;;;4992502;28;20594;-69
2023/03/08 12:34:41;;;;;;;4.13;2.40;;;5.70;99.90;;;;;;4992570;28;20057;-69
2023/03/08 12:37:24;;;;;;;3.83;2.22;;;5.70;99.90;;;;;;4992735;28;20487;-69
2023/03/08 12:40:07;;;;;;;5.18;1.77;;;5.80;99.90;;;;;;4993067;28;20034;-69
2023/03/08 12:42:40;;;;;;;6.32;1.92;;;5.70;99.90;;;;;;4992452;28;20049;-69
2023/03/08 12:45:28;;;;;;;6.90;1.75;;;5.70;99.90;;;;;;4992351;28;20396;-69
2023/03/08 12:48:00;;;;;;;3.85;1.40;;;5.80;99.90;;;;;;4992576;28;20050;-69
2023/03/08 12:50:26;;;;;;;4.72;1.80;;;5.70;99.90;;;;;;4992797;28;20042;-69
2023/03/08 12:52:52;;;;;;;7.72;1.70;;;5.80;99.90;;;;;;4992513;28;20050;-69
2023/03/08 12:55:29;;;;;;;2.45;1.50;;;5.80;99.90;;;;;;4992404;28;20125;-69
2023/03/08 12:57:57;;;;;;;3.80;1.67;;;5.80;99.90;;;;;;4992460;28;20054;-69
2023/03/08 13:00:37;;;;;;;2.72;1.48;;;5.80;99.70;;;;;;4976278;28;20049;-69
2023/03/08 13:03:11;;;;;;;5.70;2.28;;;5.80;99.50;;;;;;4992585;28;20046;-69